Terminal Aerodrome Forecast
Issued by NWS Cleveland, OH

Home | Current Version | Previous Version | Text Only | Print | Product List | Glossary Off
Versions: 1 2 3 4 5 6 7 8 9 10 11 12 13 14 15 16 17 18 19 20 21 22

834
FTUS41 KCLE 301401 AAA
TAFMFD
TAF AMD
KMFD 301401Z 3014/0112 17010KT P6SM OVC005
      TEMPO 3015/3018 P6SM OVC015
     FM301800 22010KT P6SM BKN025
      TEMPO 3021/0101 5SM -SHRA OVC015
     FM010600 26012KT P6SM BKN025=

USA.gov is the U.S. government's official web portal to all federal, state and local government web resources and services.